createdAt,value
2022-12-11T00:01:25.394Z,45.20
2022-12-11T00:03:55.200Z,53.30
2022-12-11T00:06:24.846Z,29.20
2022-12-11T00:08:55.127Z,48.00
2022-12-11T00:11:26.725Z,46.60
2022-12-11T00:13:55.995Z,38.00
2022-12-11T00:16:27.390Z,57.00
2022-12-11T00:18:56.434Z,57.30
2022-12-11T00:21:25.007Z,33.20
2022-12-11T00:23:53.969Z,31.20
2022-12-11T00:26:22.914Z,44.30
2022-12-11T00:28:57.644Z,45.80
2022-12-11T00:31:26.590Z,49.60
2022-12-11T00:33:57.451Z,53.90
2022-12-11T00:36:27.385Z,56.30
2022-12-11T00:38:56.150Z,58.20
2022-12-11T00:41:24.959Z,43.30
2022-12-11T00:43:53.977Z,59.20
2022-12-11T00:46:22.984Z,49.90
2022-12-11T00:48:51.918Z,45.90
2022-12-11T00:51:22.832Z,47.00
2022-12-11T00:53:52.887Z,51.00
2022-12-11T00:56:22.705Z,46.60
2022-12-11T00:58:51.805Z,38.10
2022-12-11T01:01:23.379Z,56.20
2022-12-11T01:03:56.316Z,53.90
2022-12-11T01:06:27.233Z,60.60
2022-12-11T01:09:15.411Z,65.50
2022-12-11T01:11:44.825Z,35.90
2022-12-11T01:14:14.144Z,27.80
2022-12-11T01:16:44.422Z,42.20
2022-12-11T01:19:13.541Z,40.20
2022-12-11T01:21:42.207Z,55.10
2022-12-11T01:24:12.149Z,39.40
2022-12-11T01:26:40.927Z,52.80
2022-12-11T01:29:09.706Z,40.50
2022-12-11T01:31:39.625Z,52.10
2022-12-11T01:34:08.206Z,48.90
2022-12-11T01:36:39.060Z,48.50
2022-12-11T01:39:07.934Z,46.60
2022-12-11T01:41:36.533Z,52.50
2022-12-11T01:44:29.474Z,54.30
2022-12-11T01:46:58.925Z,41.70
2022-12-11T01:49:28.286Z,46.60
2022-12-11T01:52:04.335Z,40.90
2022-12-11T01:54:33.348Z,49.80
2022-12-11T01:57:07.424Z,36.00
2022-12-11T01:59:38.896Z,43.20
2022-12-11T02:02:20.009Z,33.80
2022-12-11T02:04:49.792Z,45.10
2022-12-11T02:07:18.475Z,39.50
2022-12-11T02:09:48.160Z,30.70
2022-12-11T02:12:35.380Z,35.20
2022-12-11T02:15:16.876Z,46.10
2022-12-11T02:17:55.082Z,35.90
2022-12-11T02:20:28.605Z,53.30
2022-12-11T02:23:03.106Z,37.30
2022-12-11T02:25:33.636Z,45.30
2022-12-11T02:28:23.404Z,51.60
2022-12-11T02:30:56.163Z,46.10
2022-12-11T02:33:42.813Z,40.10
2022-12-11T02:36:12.510Z,34.60
2022-12-11T02:38:43.012Z,44.40
2022-12-11T02:41:12.437Z,34.30
2022-12-11T02:43:42.350Z,37.40
2022-12-11T02:46:11.826Z,32.50
2022-12-11T02:48:41.318Z,36.80
2022-12-11T02:51:10.581Z,45.80
2022-12-11T02:53:41.597Z,33.00
2022-12-11T02:56:20.990Z,42.10
2022-12-11T02:58:58.533Z,37.20
2022-12-11T03:01:28.017Z,45.00
2022-12-11T03:03:57.123Z,35.70
2022-12-11T03:06:33.819Z,36.70
2022-12-11T03:09:03.222Z,30.80
2022-12-11T03:11:31.899Z,41.90
2022-12-11T03:14:03.372Z,40.10
2022-12-11T03:16:36.937Z,31.30
2022-12-11T03:19:33.011Z,32.60
2022-12-11T03:22:10.582Z,37.20
2022-12-11T03:24:40.701Z,34.90
2022-12-11T03:27:31.399Z,39.00
2022-12-11T03:30:06.316Z,40.70
2022-12-11T03:33:02.334Z,30.30
2022-12-11T03:35:38.419Z,34.70
2022-12-11T03:38:11.834Z,34.00
2022-12-11T03:40:42.964Z,36.70
2022-12-11T03:43:12.142Z,38.60
2022-12-11T03:45:42.444Z,29.20
2022-12-11T03:48:12.677Z,35.30
2022-12-11T03:50:43.344Z,36.50
2022-12-11T03:53:12.519Z,38.60
2022-12-11T03:55:41.304Z,40.80
2022-12-11T03:58:10.000Z,37.60
2022-12-11T04:00:38.965Z,41.60
2022-12-11T04:03:14.286Z,29.90
2022-12-11T04:05:46.710Z,33.80
2022-12-11T04:08:17.364Z,53.70
2022-12-11T04:10:46.122Z,31.00
2022-12-11T04:13:14.899Z,32.00
2022-12-11T04:15:43.734Z,26.50
2022-12-11T04:18:31.103Z,38.90
2022-12-11T04:21:18.564Z,38.70
2022-12-11T04:24:06.284Z,35.00
2022-12-11T04:26:35.174Z,52.70
2022-12-11T04:29:04.154Z,37.90
2022-12-11T04:31:32.925Z,39.40
2022-12-11T04:34:01.836Z,31.30
2022-12-11T04:36:30.516Z,26.80
2022-12-11T04:38:59.504Z,45.20
2022-12-11T04:41:28.300Z,37.10
2022-12-11T04:43:56.879Z,26.80
2022-12-11T04:46:26.109Z,41.40
2022-12-11T04:48:57.577Z,25.60
2022-12-11T04:51:28.465Z,39.80
2022-12-11T04:53:58.985Z,31.30
2022-12-11T04:56:27.467Z,30.70
2022-12-11T04:58:56.189Z,35.40
2022-12-11T05:01:25.106Z,32.30
2022-12-11T05:03:53.946Z,30.10
2022-12-11T05:06:22.847Z,29.70
2022-12-11T05:08:51.826Z,32.60
2022-12-11T05:11:20.427Z,36.50
2022-12-11T05:13:49.428Z,37.60
2022-12-11T05:16:18.372Z,39.60
2022-12-11T05:18:48.127Z,29.30
2022-12-11T05:21:16.890Z,35.60
2022-12-11T05:23:45.575Z,35.10
2022-12-11T05:26:17.868Z,35.80
2022-12-11T05:28:47.785Z,28.70
2022-12-11T05:31:19.256Z,36.90
2022-12-11T05:33:49.347Z,30.70
2022-12-11T05:36:26.814Z,29.50
2022-12-11T05:38:55.627Z,24.90
2022-12-11T05:41:27.165Z,33.10
2022-12-11T05:43:55.967Z,25.30
2022-12-11T05:46:27.276Z,33.20
2022-12-11T05:49:00.161Z,31.40
2022-12-11T05:51:30.448Z,28.60
2022-12-11T05:53:58.986Z,33.30
2022-12-11T05:56:33.108Z,28.50
2022-12-11T05:59:04.247Z,35.70
2022-12-11T06:01:36.969Z,35.20
2022-12-11T06:04:07.430Z,32.40
2022-12-11T06:06:36.920Z,27.90
2022-12-11T06:09:07.287Z,31.30
2022-12-11T06:11:36.486Z,30.50
2022-12-11T06:14:05.160Z,27.30
2022-12-11T06:16:33.983Z,25.30
2022-12-11T06:19:03.790Z,26.30
2022-12-11T06:21:33.474Z,26.40
2022-12-11T06:24:04.312Z,30.00
2022-12-11T06:26:33.094Z,28.00
2022-12-11T06:29:01.671Z,27.40
2022-12-11T06:31:31.215Z,24.80
2022-12-11T06:34:00.141Z,22.40
2022-12-11T06:36:29.067Z,21.70
2022-12-11T06:38:57.657Z,23.40
2022-12-11T06:41:26.556Z,26.60
2022-12-11T06:43:55.437Z,31.40
2022-12-11T06:46:24.199Z,22.70
2022-12-11T06:48:52.797Z,30.20
2022-12-11T06:51:23.417Z,29.90
2022-12-11T06:53:53.772Z,31.70
2022-12-11T06:56:23.173Z,25.60
2022-12-11T06:58:52.357Z,29.10
2022-12-11T07:01:23.863Z,29.80
2022-12-11T07:03:57.339Z,34.20
2022-12-11T07:06:27.399Z,28.80
2022-12-11T07:08:56.229Z,28.30
2022-12-11T07:11:25.430Z,25.60
2022-12-11T07:13:55.126Z,27.90
2022-12-11T07:16:23.774Z,28.10
2022-12-11T07:18:53.004Z,20.20
2022-12-11T07:21:22.309Z,25.40
2022-12-11T07:23:51.308Z,34.70
2022-12-11T07:26:23.227Z,22.40
2022-12-11T07:28:54.404Z,23.00
2022-12-11T07:31:25.284Z,20.50
2022-12-11T07:34:04.474Z,30.60
2022-12-11T07:36:34.187Z,24.80
2022-12-11T07:39:03.989Z,27.20
2022-12-11T07:41:33.607Z,28.90
2022-12-11T07:44:03.429Z,23.50
2022-12-11T07:46:33.965Z,20.90
2022-12-11T07:49:03.165Z,27.70
2022-12-11T07:51:34.224Z,23.50
2022-12-11T07:54:05.692Z,26.70
2022-12-11T07:56:35.757Z,24.40
2022-12-11T07:59:05.777Z,24.80
2022-12-11T08:01:36.798Z,18.10
2022-12-11T08:04:10.415Z,23.30
2022-12-11T08:06:40.430Z,28.50
2022-12-11T08:09:17.456Z,30.00
2022-12-11T08:11:51.529Z,25.00
2022-12-11T08:14:21.326Z,31.70
2022-12-11T08:16:50.320Z,29.50
2022-12-11T08:19:19.111Z,32.30
2022-12-11T08:21:47.904Z,31.90
2022-12-11T08:24:20.806Z,34.60
2022-12-11T08:26:49.887Z,30.60
2022-12-11T08:29:18.667Z,22.40
2022-12-11T08:31:47.769Z,26.80
2022-12-11T08:34:16.668Z,22.30
2022-12-11T08:36:46.032Z,25.60
2022-12-11T08:39:15.028Z,27.60
2022-12-11T08:41:43.847Z,32.70
2022-12-11T08:44:16.653Z,19.10
2022-12-11T08:46:47.048Z,30.80
2022-12-11T08:49:16.951Z,26.40
2022-12-11T08:51:46.461Z,32.30
2022-12-11T08:54:15.247Z,24.60
2022-12-11T08:56:44.036Z,31.60
2022-12-11T08:59:13.047Z,29.50
2022-12-11T09:01:42.331Z,23.20
2022-12-11T09:04:11.448Z,27.00
2022-12-11T09:06:42.872Z,26.80
2022-12-11T09:09:13.557Z,22.90
2022-12-11T09:11:48.550Z,29.00
2022-12-11T09:14:17.122Z,27.00
2022-12-11T09:16:47.988Z,26.50
2022-12-11T09:19:18.031Z,26.10
2022-12-11T09:21:48.109Z,27.10
2022-12-11T09:24:17.606Z,26.90
2022-12-11T09:26:47.728Z,23.80
2022-12-11T09:29:17.548Z,26.20
2022-12-11T09:31:49.656Z,21.70
2022-12-11T09:34:24.792Z,24.90
2022-12-11T09:36:57.832Z,25.10
2022-12-11T09:39:26.918Z,18.90
2022-12-11T09:42:04.925Z,22.90
2022-12-11T09:44:45.736Z,27.50
2022-12-11T09:47:38.014Z,26.10
2022-12-11T09:50:10.730Z,19.70
2022-12-11T09:52:45.867Z,21.10
2022-12-11T09:55:25.299Z,21.80
2022-12-11T09:58:26.373Z,16.40
2022-12-11T10:01:10.865Z,22.90
2022-12-11T10:04:05.835Z,21.90
2022-12-11T10:06:43.088Z,17.30
2022-12-11T10:09:20.529Z,19.20
2022-12-11T10:12:08.012Z,19.00
2022-12-11T10:15:02.983Z,25.80
2022-12-11T10:17:33.441Z,19.10
2022-12-11T10:20:40.822Z,16.20
2022-12-11T10:23:20.468Z,25.50
2022-12-11T10:25:54.283Z,19.60
2022-12-11T10:28:24.198Z,15.10
2022-12-11T10:31:02.962Z,17.20
2022-12-11T10:33:58.956Z,20.20
2022-12-11T10:36:33.480Z,23.50
2022-12-11T10:39:02.582Z,16.00
2022-12-11T10:41:39.581Z,15.50
2022-12-11T10:44:23.073Z,20.70
2022-12-11T10:47:15.905Z,20.30
2022-12-11T10:49:56.389Z,19.80
2022-12-11T10:52:27.847Z,20.40
2022-12-11T10:55:05.423Z,19.10
2022-12-11T10:57:39.446Z,17.30
2022-12-11T11:00:09.950Z,20.30
2022-12-11T11:02:40.591Z,17.30
2022-12-11T11:05:26.234Z,19.30
2022-12-11T11:08:19.918Z,22.30
2022-12-11T11:10:56.984Z,18.30
2022-12-11T11:13:27.920Z,19.30
2022-12-11T11:16:02.188Z,23.70
2022-12-11T11:18:31.906Z,17.30
2022-12-11T11:21:01.912Z,17.70
2022-12-11T11:23:31.207Z,15.40
2022-12-11T11:26:02.008Z,14.70
2022-12-11T11:28:37.511Z,13.10
2022-12-11T11:31:09.595Z,14.80
2022-12-11T11:33:55.648Z,15.30
2022-12-11T11:36:30.523Z,17.40
2022-12-11T11:39:21.067Z,16.30
2022-12-11T11:42:15.796Z,15.20
2022-12-11T11:45:04.580Z,18.30
2022-12-11T11:47:43.967Z,12.40
2022-12-11T11:50:18.477Z,13.50
2022-12-11T11:52:51.587Z,16.20
2022-12-11T11:55:33.274Z,10.30
2022-12-11T11:58:16.604Z,15.30
2022-12-11T12:00:45.487Z,15.00
2022-12-11T12:03:19.977Z,15.10
2022-12-11T12:05:57.397Z,14.50
2022-12-11T12:08:46.867Z,12.10
2022-12-11T12:11:37.990Z,14.40
2022-12-11T12:14:43.514Z,16.20
2022-12-11T12:17:22.928Z,15.50
2022-12-11T12:19:55.248Z,14.80
2022-12-11T12:22:53.623Z,12.70
2022-12-11T12:25:42.168Z,12.90
2022-12-11T12:28:38.507Z,18.50
2022-12-11T12:31:42.172Z,19.50
2022-12-11T12:34:59.027Z,22.20
2022-12-11T12:37:30.887Z,17.80
2022-12-11T12:40:02.744Z,16.20
2022-12-11T12:42:39.845Z,16.20
2022-12-11T12:45:24.657Z,17.70
2022-12-11T12:47:53.899Z,15.10
2022-12-11T12:50:25.693Z,17.00
2022-12-11T12:52:55.162Z,20.90
2022-12-11T12:55:27.552Z,16.80
2022-12-11T12:58:02.050Z,19.40
2022-12-11T13:00:40.121Z,14.20
2022-12-11T13:03:23.892Z,18.20
2022-12-11T13:06:05.503Z,14.20
2022-12-11T13:08:48.509Z,18.30
2022-12-11T13:11:19.410Z,18.20
2022-12-11T13:14:02.673Z,13.20
2022-12-11T13:16:42.960Z,17.10
2022-12-11T13:19:24.112Z,15.70
2022-12-11T13:22:22.824Z,17.00
2022-12-11T13:25:00.191Z,15.70
2022-12-11T13:27:41.088Z,13.80
2022-12-11T13:30:16.148Z,14.90
2022-12-11T13:33:04.230Z,11.90
2022-12-11T13:35:34.450Z,16.80
2022-12-11T13:38:17.545Z,15.30
2022-12-11T13:40:50.877Z,15.80
2022-12-11T13:43:24.006Z,15.50
2022-12-11T13:45:57.039Z,18.50
2022-12-11T13:48:33.134Z,14.90
2022-12-11T13:51:03.630Z,19.40
2022-12-11T13:53:35.038Z,19.10
2022-12-11T13:56:14.644Z,14.40
2022-12-11T13:58:43.658Z,24.70
2022-12-11T14:01:23.541Z,23.10
2022-12-11T14:04:07.325Z,24.60
2022-12-11T14:06:37.748Z,24.90
2022-12-11T14:09:07.627Z,15.00
2022-12-11T14:11:42.112Z,19.20
2022-12-11T14:14:21.407Z,17.90
2022-12-11T14:16:52.080Z,25.90
2022-12-11T14:19:22.883Z,21.00
2022-12-11T14:22:04.476Z,18.80
2022-12-11T14:24:33.546Z,25.60
2022-12-11T14:27:05.131Z,13.80
2022-12-11T14:29:34.305Z,17.80
2022-12-11T14:32:05.517Z,17.90
2022-12-11T14:34:44.915Z,21.60
2022-12-11T14:37:16.116Z,18.90
2022-12-11T14:39:47.059Z,22.90
2022-12-11T14:42:22.125Z,20.50
2022-12-11T14:44:55.857Z,23.00
2022-12-11T14:47:39.521Z,20.70
2022-12-11T14:50:17.412Z,19.60
2022-12-11T14:52:54.224Z,19.20
2022-12-11T14:55:25.028Z,17.80
2022-12-11T14:57:59.905Z,18.10
2022-12-11T15:00:36.624Z,17.70
2022-12-11T15:03:22.596Z,22.00
2022-12-11T15:05:54.803Z,15.10
2022-12-11T15:08:28.793Z,18.10
2022-12-11T15:11:14.939Z,19.20
2022-12-11T15:14:01.851Z,18.80
2022-12-11T15:16:34.692Z,18.80
2022-12-11T15:19:04.551Z,15.30
2022-12-11T15:21:38.771Z,20.50
2022-12-11T15:24:19.652Z,17.70
2022-12-11T15:26:49.521Z,16.10
2022-12-11T15:29:42.992Z,17.60
2022-12-11T15:32:14.759Z,19.70
2022-12-11T15:34:52.262Z,14.10
2022-12-11T15:37:28.840Z,16.20
2022-12-11T15:40:00.225Z,17.10
2022-12-11T15:42:35.006Z,15.30
2022-12-11T15:45:07.871Z,17.00
2022-12-11T15:47:36.769Z,18.20
2022-12-11T15:50:19.733Z,20.40
2022-12-11T15:52:51.785Z,17.20
2022-12-11T15:55:22.044Z,11.00
2022-12-11T15:57:57.490Z,12.50
2022-12-11T16:00:28.483Z,16.00
2022-12-11T16:02:58.059Z,16.40
2022-12-11T16:05:28.400Z,10.60
2022-12-11T16:08:00.642Z,11.80
2022-12-11T16:10:31.598Z,13.60
2022-12-11T16:13:01.225Z,18.20
2022-12-11T16:15:30.474Z,15.90
2022-12-11T16:18:10.897Z,15.00
2022-12-11T16:20:43.362Z,14.90
2022-12-11T16:23:15.463Z,14.40
2022-12-11T16:25:45.898Z,17.90
2022-12-11T16:28:18.510Z,18.50
2022-12-11T16:30:48.072Z,16.30
2022-12-11T16:33:19.964Z,13.80
2022-12-11T16:35:50.302Z,17.50
2022-12-11T16:38:19.804Z,11.90
2022-12-11T16:40:50.035Z,14.40
2022-12-11T16:43:20.810Z,13.60
2022-12-11T16:45:57.308Z,12.90
2022-12-11T16:48:27.137Z,15.80
2022-12-11T16:50:59.105Z,13.20
2022-12-11T16:53:28.303Z,13.80
2022-12-11T16:55:58.221Z,14.20
2022-12-11T16:58:28.276Z,16.00
2022-12-11T17:01:03.930Z,17.40
2022-12-11T17:03:33.779Z,16.90
2022-12-11T17:06:07.744Z,18.60
2022-12-11T17:08:38.899Z,16.20
2022-12-11T17:11:12.164Z,17.70
2022-12-11T17:13:41.954Z,24.80
2022-12-11T17:16:14.094Z,23.10
2022-12-11T17:18:47.967Z,20.00
2022-12-11T17:21:19.922Z,18.40
2022-12-11T17:23:50.858Z,12.30
2022-12-11T17:26:22.400Z,19.60
2022-12-11T17:28:56.212Z,15.50
2022-12-11T17:31:29.257Z,15.30
2022-12-11T17:34:03.898Z,18.20
2022-12-11T17:36:35.042Z,15.50
2022-12-11T17:39:06.833Z,16.20
2022-12-11T17:41:37.306Z,16.70
2022-12-11T17:44:12.988Z,18.20
2022-12-11T17:46:43.602Z,15.30
2022-12-11T17:49:14.569Z,16.30
2022-12-11T17:51:45.162Z,15.20
2022-12-11T17:54:15.694Z,16.80
2022-12-11T17:56:45.821Z,16.90
2022-12-11T17:59:15.540Z,20.60
2022-12-11T18:01:46.864Z,22.40
2022-12-11T18:04:18.431Z,20.00
2022-12-11T18:06:48.461Z,22.40
2022-12-11T18:09:19.393Z,20.70
2022-12-11T18:11:49.608Z,18.60
2022-12-11T18:14:20.762Z,15.30
2022-12-11T18:16:52.234Z,17.00
2022-12-11T18:19:24.062Z,20.50
2022-12-11T18:21:59.320Z,17.80
2022-12-11T18:24:33.582Z,21.30
2022-12-11T18:27:05.208Z,25.10
2022-12-11T18:29:35.301Z,18.20
2022-12-11T18:32:07.162Z,23.00
2022-12-11T18:34:40.137Z,20.80
2022-12-11T18:37:10.681Z,19.70
2022-12-11T18:39:43.140Z,18.70
2022-12-11T18:45:06.331Z,18.00
2022-12-11T18:47:37.973Z,26.20
2022-12-11T18:50:13.603Z,18.70
2022-12-11T18:52:43.849Z,21.10
2022-12-11T18:55:15.659Z,23.80
2022-12-11T18:57:46.752Z,16.90
2022-12-11T19:00:20.749Z,19.40
2022-12-11T19:02:53.842Z,25.50
2022-12-11T19:05:26.632Z,19.20
2022-12-11T19:08:02.603Z,25.50
2022-12-11T19:10:33.599Z,21.30
2022-12-11T19:13:05.310Z,22.40
2022-12-11T19:15:40.252Z,20.10
2022-12-11T19:18:12.318Z,24.30
2022-12-11T19:20:50.619Z,22.50
2022-12-11T19:23:25.731Z,20.10
2022-12-11T19:25:55.643Z,22.80
2022-12-11T19:28:28.532Z,22.10
2022-12-11T19:30:59.753Z,19.70
2022-12-11T19:33:35.947Z,19.50
2022-12-11T19:36:10.842Z,22.20
2022-12-11T19:38:42.638Z,19.00
2022-12-11T19:41:41.209Z,17.70
2022-12-11T19:44:12.319Z,19.00
2022-12-11T19:46:45.755Z,15.40
2022-12-11T19:49:20.851Z,21.00
2022-12-11T19:51:51.935Z,21.50
2022-12-11T19:54:22.435Z,24.70
2022-12-11T19:56:56.918Z,21.10
2022-12-11T19:59:34.808Z,22.40
2022-12-11T20:02:05.778Z,22.50
2022-12-11T20:04:43.817Z,20.70
2022-12-11T20:07:14.760Z,22.00
2022-12-11T20:09:45.108Z,21.70
2022-12-11T20:12:20.733Z,25.90
2022-12-11T20:14:51.849Z,17.50
2022-12-11T20:17:25.885Z,22.00
2022-12-11T20:19:58.074Z,19.00
2022-12-11T20:22:28.959Z,19.10
2022-12-11T20:25:00.865Z,28.10
2022-12-11T20:27:31.681Z,21.60
2022-12-11T20:30:02.220Z,24.60
2022-12-11T20:32:36.031Z,19.60
2022-12-11T20:35:09.524Z,22.50
2022-12-11T20:37:41.582Z,22.20
2022-12-11T20:40:14.809Z,27.50
2022-12-11T20:42:47.493Z,24.00
2022-12-11T20:45:19.246Z,29.10
2022-12-11T20:47:49.838Z,26.50
2022-12-11T20:50:20.477Z,23.50
2022-12-11T20:52:51.937Z,24.90
2022-12-11T20:55:23.870Z,24.60
2022-12-11T20:57:56.972Z,24.50
2022-12-11T21:00:27.858Z,20.70
2022-12-11T21:02:58.117Z,18.60
2022-12-11T21:05:28.228Z,21.90
2022-12-11T21:07:59.290Z,22.30
2022-12-11T21:10:28.807Z,24.70
2022-12-11T21:12:58.713Z,21.00
2022-12-11T21:15:31.285Z,27.40
2022-12-11T21:18:02.044Z,22.70
2022-12-11T21:20:32.287Z,21.40
2022-12-11T21:23:01.653Z,25.40
2022-12-11T21:25:32.303Z,19.00
2022-12-11T21:28:02.654Z,20.40
2022-12-11T21:30:32.112Z,21.10
2022-12-11T21:33:04.603Z,19.30
2022-12-11T21:35:33.941Z,16.30
2022-12-11T21:38:02.900Z,20.50
2022-12-11T21:40:31.981Z,17.30
2022-12-11T21:43:01.128Z,26.20
2022-12-11T21:48:18.838Z,25.50
2022-12-11T21:50:47.919Z,23.10
2022-12-11T21:53:17.064Z,19.60
2022-12-11T21:55:46.119Z,25.90
2022-12-11T21:58:14.800Z,27.00
2022-12-11T22:00:45.954Z,23.00
2022-12-11T22:03:15.661Z,21.20
2022-12-11T22:06:02.800Z,22.20
2022-12-11T22:08:42.620Z,23.10
2022-12-11T22:11:11.620Z,18.70
2022-12-11T22:13:40.701Z,21.10
2022-12-11T22:16:10.098Z,21.90
2022-12-11T22:18:39.501Z,24.40
2022-12-11T22:21:08.399Z,19.20
2022-12-11T22:23:40.865Z,23.50
2022-12-11T22:26:11.455Z,25.70
2022-12-11T22:28:41.420Z,22.70
2022-12-11T22:31:13.222Z,25.10
2022-12-11T22:33:43.972Z,28.10
2022-12-11T22:36:13.299Z,21.90
2022-12-11T22:38:42.200Z,28.00
2022-12-11T22:41:18.872Z,32.50
2022-12-11T22:43:51.139Z,24.20
2022-12-11T22:46:22.051Z,25.30
2022-12-11T22:48:51.062Z,24.20
2022-12-11T22:51:20.059Z,25.60
2022-12-11T22:53:48.963Z,26.50
2022-12-11T22:56:17.528Z,25.50
2022-12-11T22:58:46.740Z,21.80
2022-12-11T23:01:18.712Z,19.70
2022-12-11T23:03:48.029Z,21.40
2022-12-11T23:06:22.922Z,26.90
2022-12-11T23:08:55.289Z,26.60
2022-12-11T23:11:28.504Z,26.20
2022-12-11T23:13:58.819Z,20.80
2022-12-11T23:16:29.026Z,31.00
2022-12-11T23:18:58.543Z,23.50
2022-12-11T23:21:28.870Z,28.00
2022-12-11T23:23:58.891Z,25.90
2022-12-11T23:26:28.612Z,24.70
2022-12-11T23:28:58.916Z,29.00
2022-12-11T23:31:29.117Z,24.30
2022-12-11T23:33:58.146Z,20.70
2022-12-11T23:36:28.782Z,25.60
2022-12-11T23:38:57.860Z,27.10
2022-12-11T23:41:26.448Z,30.00
2022-12-11T23:43:55.647Z,25.90
2022-12-11T23:46:25.965Z,31.30
2022-12-11T23:48:55.571Z,27.70
2022-12-11T23:51:25.793Z,22.40
2022-12-11T23:53:55.055Z,27.80
2022-12-11T23:56:29.176Z,26.50
2022-12-11T23:58:58.301Z,23.50
